sensor_id;sensor_type;location;lat;lon;timestamp;P1;durP1;ratioP1;P2;durP2;ratioP2
69596;SDS011;56802;51.184;-115.558;2022-11-04T00:00:37;7.20;;;2.40;;
69596;SDS011;56802;51.184;-115.558;2022-11-04T00:03:07;6.30;;;2.30;;
69596;SDS011;56802;51.184;-115.558;2022-11-04T00:05:36;6.10;;;2.10;;
69596;SDS011;56802;51.184;-115.558;2022-11-04T00:08:06;6.90;;;2.20;;
69596;SDS011;56802;51.184;-115.558;2022-11-04T00:10:55;6.10;;;2.30;;
69596;SDS011;56802;51.184;-115.558;2022-11-04T00:13:44;8.80;;;3.90;;
69596;SDS011;56802;51.184;-115.558;2022-11-04T00:16:15;6.70;;;2.90;;
69596;SDS011;56802;51.184;-115.558;2022-11-04T00:19:02;8.90;;;2.70;;
69596;SDS011;56802;51.184;-115.558;2022-11-04T00:21:32;5.60;;;2.10;;
69596;SDS011;56802;51.184;-115.558;2022-11-04T00:24:19;7.70;;;2.80;;
69596;SDS011;56802;51.184;-115.558;2022-11-04T00:27:11;7.00;;;2.90;;
69596;SDS011;56802;51.184;-115.558;2022-11-04T00:30:02;6.50;;;2.70;;
69596;SDS011;56802;51.184;-115.558;2022-11-04T00:32:33;6.70;;;2.40;;
69596;SDS011;56802;51.184;-115.558;2022-11-04T00:35:22;6.30;;;2.30;;
69596;SDS011;56802;51.184;-115.558;2022-11-04T00:37:51;6.90;;;2.70;;
69596;SDS011;56802;51.184;-115.558;2022-11-04T00:40:20;7.10;;;2.30;;
69596;SDS011;56802;51.184;-115.558;2022-11-04T00:42:50;6.20;;;2.20;;
69596;SDS011;56802;51.184;-115.558;2022-11-04T00:45:18;6.40;;;2.40;;
69596;SDS011;56802;51.184;-115.558;2022-11-04T00:47:48;5.90;;;2.00;;
69596;SDS011;56802;51.184;-115.558;2022-11-04T00:50:17;7.00;;;2.30;;
69596;SDS011;56802;51.184;-115.558;2022-11-04T00:52:46;7.00;;;2.50;;
69596;SDS011;56802;51.184;-115.558;2022-11-04T00:55:16;5.50;;;2.10;;
69596;SDS011;56802;51.184;-115.558;2022-11-04T00:57:45;6.20;;;2.10;;
69596;SDS011;56802;51.184;-115.558;2022-11-04T01:00:14;6.70;;;2.30;;
69596;SDS011;56802;51.184;-115.558;2022-11-04T01:02:44;6.20;;;2.70;;
69596;SDS011;56802;51.184;-115.558;2022-11-04T01:05:13;6.10;;;2.30;;
69596;SDS011;56802;51.184;-115.558;2022-11-04T01:07:43;5.70;;;2.00;;
69596;SDS011;56802;51.184;-115.558;2022-11-04T01:10:12;8.00;;;2.30;;
69596;SDS011;56802;51.184;-115.558;2022-11-04T01:12:42;6.40;;;2.00;;
69596;SDS011;56802;51.184;-115.558;2022-11-04T01:15:11;6.10;;;2.20;;
69596;SDS011;56802;51.184;-115.558;2022-11-04T01:17:41;5.80;;;2.30;;
69596;SDS011;56802;51.184;-115.558;2022-11-04T01:20:10;5.80;;;2.40;;
69596;SDS011;56802;51.184;-115.558;2022-11-04T01:22:41;6.00;;;2.20;;
69596;SDS011;56802;51.184;-115.558;2022-11-04T01:25:10;6.10;;;2.20;;
69596;SDS011;56802;51.184;-115.558;2022-11-04T01:27:39;6.50;;;2.60;;
69596;SDS011;56802;51.184;-115.558;2022-11-04T01:30:09;6.00;;;2.10;;
69596;SDS011;56802;51.184;-115.558;2022-11-04T01:32:40;6.40;;;2.20;;
69596;SDS011;56802;51.184;-115.558;2022-11-04T01:35:13;5.80;;;1.90;;
69596;SDS011;56802;51.184;-115.558;2022-11-04T01:37:42;6.20;;;2.10;;
69596;SDS011;56802;51.184;-115.558;2022-11-04T01:40:11;6.20;;;2.60;;
69596;SDS011;56802;51.184;-115.558;2022-11-04T01:42:41;5.10;;;1.90;;
69596;SDS011;56802;51.184;-115.558;2022-11-04T01:45:15;7.10;;;2.20;;
69596;SDS011;56802;51.184;-115.558;2022-11-04T01:48:01;6.20;;;2.00;;
69596;SDS011;56802;51.184;-115.558;2022-11-04T01:50:36;6.40;;;2.10;;
69596;SDS011;56802;51.184;-115.558;2022-11-04T01:53:15;5.70;;;2.20;;
69596;SDS011;56802;51.184;-115.558;2022-11-04T01:55:55;5.30;;;1.90;;
69596;SDS011;56802;51.184;-115.558;2022-11-04T01:58:31;6.10;;;1.80;;
69596;SDS011;56802;51.184;-115.558;2022-11-04T02:01:02;5.80;;;2.20;;
69596;SDS011;56802;51.184;-115.558;2022-11-04T02:03:33;6.60;;;1.90;;
69596;SDS011;56802;51.184;-115.558;2022-11-04T02:06:06;7.00;;;2.60;;
69596;SDS011;56802;51.184;-115.558;2022-11-04T02:08:37;6.10;;;2.60;;
69596;SDS011;56802;51.184;-115.558;2022-11-04T02:11:08;6.50;;;2.50;;
69596;SDS011;56802;51.184;-115.558;2022-11-04T02:13:38;5.90;;;2.10;;
69596;SDS011;56802;51.184;-115.558;2022-11-04T02:22:23;5.80;;;1.80;;
69596;SDS011;56802;51.184;-115.558;2022-11-04T02:31:10;6.10;;;2.00;;
69596;SDS011;56802;51.184;-115.558;2022-11-04T02:34:03;6.50;;;2.40;;
69596;SDS011;56802;51.184;-115.558;2022-11-04T02:36:52;7.80;;;2.70;;
69596;SDS011;56802;51.184;-115.558;2022-11-04T02:43:39;6.10;;;2.10;;
69596;SDS011;56802;51.184;-115.558;2022-11-04T02:47:18;5.80;;;2.00;;
69596;SDS011;56802;51.184;-115.558;2022-11-04T02:49:58;6.20;;;2.30;;
69596;SDS011;56802;51.184;-115.558;2022-11-04T02:52:40;6.60;;;2.60;;
69596;SDS011;56802;51.184;-115.558;2022-11-04T02:58:34;6.00;;;2.40;;
69596;SDS011;56802;51.184;-115.558;2022-11-04T03:01:10;5.90;;;2.20;;
69596;SDS011;56802;51.184;-115.558;2022-11-04T03:03:48;7.00;;;2.30;;
69596;SDS011;56802;51.184;-115.558;2022-11-04T03:06:24;7.70;;;2.80;;
69596;SDS011;56802;51.184;-115.558;2022-11-04T03:08:56;6.20;;;2.10;;
69596;SDS011;56802;51.184;-115.558;2022-11-04T03:11:27;7.90;;;2.60;;
69596;SDS011;56802;51.184;-115.558;2022-11-04T03:14:03;7.60;;;2.10;;
69596;SDS011;56802;51.184;-115.558;2022-11-04T03:16:40;6.90;;;2.30;;
69596;SDS011;56802;51.184;-115.558;2022-11-04T03:19:37;5.50;;;2.00;;
69596;SDS011;56802;51.184;-115.558;2022-11-04T03:22:17;5.50;;;1.60;;
69596;SDS011;56802;51.184;-115.558;2022-11-04T03:24:48;6.00;;;2.00;;
69596;SDS011;56802;51.184;-115.558;2022-11-04T03:30:06;6.00;;;2.50;;
69596;SDS011;56802;51.184;-115.558;2022-11-04T03:33:05;5.60;;;2.10;;
69596;SDS011;56802;51.184;-115.558;2022-11-04T03:35:47;6.90;;;2.50;;
69596;SDS011;56802;51.184;-115.558;2022-11-04T03:38:16;6.20;;;2.10;;
69596;SDS011;56802;51.184;-115.558;2022-11-04T03:40:49;5.90;;;2.00;;
69596;SDS011;56802;51.184;-115.558;2022-11-04T03:43:25;6.20;;;1.90;;
69596;SDS011;56802;51.184;-115.558;2022-11-04T03:45:56;6.50;;;2.60;;
69596;SDS011;56802;51.184;-115.558;2022-11-04T03:48:26;7.00;;;2.20;;
69596;SDS011;56802;51.184;-115.558;2022-11-04T03:50:55;6.70;;;2.20;;
69596;SDS011;56802;51.184;-115.558;2022-11-04T03:53:27;6.90;;;2.30;;
69596;SDS011;56802;51.184;-115.558;2022-11-04T04:05:47;6.60;;;2.40;;
69596;SDS011;56802;51.184;-115.558;2022-11-04T04:14:33;6.90;;;2.10;;
69596;SDS011;56802;51.184;-115.558;2022-11-04T04:19:42;6.40;;;1.80;;
69596;SDS011;56802;51.184;-115.558;2022-11-04T04:22:22;6.30;;;2.30;;
69596;SDS011;56802;51.184;-115.558;2022-11-04T04:24:57;6.00;;;2.10;;
69596;SDS011;56802;51.184;-115.558;2022-11-04T04:27:48;7.60;;;2.50;;
69596;SDS011;56802;51.184;-115.558;2022-11-04T04:30:19;6.50;;;2.20;;
69596;SDS011;56802;51.184;-115.558;2022-11-04T04:33:05;7.10;;;2.40;;
69596;SDS011;56802;51.184;-115.558;2022-11-04T04:35:43;6.10;;;1.90;;
69596;SDS011;56802;51.184;-115.558;2022-11-04T04:38:28;6.60;;;2.40;;
69596;SDS011;56802;51.184;-115.558;2022-11-04T04:44:25;7.10;;;2.80;;
69596;SDS011;56802;51.184;-115.558;2022-11-04T04:47:21;9.10;;;2.70;;
69596;SDS011;56802;51.184;-115.558;2022-11-04T04:49:57;7.10;;;2.60;;
69596;SDS011;56802;51.184;-115.558;2022-11-04T04:52:32;7.50;;;2.30;;
69596;SDS011;56802;51.184;-115.558;2022-11-04T04:55:06;6.90;;;2.80;;
69596;SDS011;56802;51.184;-115.558;2022-11-04T04:57:36;5.90;;;2.00;;
69596;SDS011;56802;51.184;-115.558;2022-11-04T05:00:08;6.10;;;2.50;;
69596;SDS011;56802;51.184;-115.558;2022-11-04T05:02:40;6.40;;;2.60;;
69596;SDS011;56802;51.184;-115.558;2022-11-04T05:05:12;6.90;;;2.40;;
69596;SDS011;56802;51.184;-115.558;2022-11-04T05:07:41;6.60;;;2.40;;
69596;SDS011;56802;51.184;-115.558;2022-11-04T05:10:13;6.70;;;2.50;;
69596;SDS011;56802;51.184;-115.558;2022-11-04T05:12:43;6.80;;;2.70;;
69596;SDS011;56802;51.184;-115.558;2022-11-04T05:15:32;6.90;;;2.60;;
69596;SDS011;56802;51.184;-115.558;2022-11-04T05:18:04;6.40;;;2.40;;
69596;SDS011;56802;51.184;-115.558;2022-11-04T05:20:35;6.40;;;2.50;;
69596;SDS011;56802;51.184;-115.558;2022-11-04T05:23:07;6.50;;;2.40;;
69596;SDS011;56802;51.184;-115.558;2022-11-04T05:25:39;6.10;;;2.40;;
69596;SDS011;56802;51.184;-115.558;2022-11-04T05:28:09;10.10;;;2.70;;
69596;SDS011;56802;51.184;-115.558;2022-11-04T05:30:38;7.00;;;2.80;;
69596;SDS011;56802;51.184;-115.558;2022-11-04T05:33:08;9.10;;;2.70;;
69596;SDS011;56802;51.184;-115.558;2022-11-04T05:35:37;7.70;;;2.90;;
69596;SDS011;56802;51.184;-115.558;2022-11-04T05:38:07;7.90;;;2.70;;
69596;SDS011;56802;51.184;-115.558;2022-11-04T05:40:36;6.70;;;2.50;;
69596;SDS011;56802;51.184;-115.558;2022-11-04T05:43:05;6.60;;;2.60;;
69596;SDS011;56802;51.184;-115.558;2022-11-04T05:45:35;6.20;;;2.60;;
69596;SDS011;56802;51.184;-115.558;2022-11-04T05:48:04;6.60;;;2.80;;
69596;SDS011;56802;51.184;-115.558;2022-11-04T05:50:33;7.90;;;2.50;;
69596;SDS011;56802;51.184;-115.558;2022-11-04T05:53:03;6.80;;;3.00;;
69596;SDS011;56802;51.184;-115.558;2022-11-04T05:55:32;6.80;;;3.10;;
69596;SDS011;56802;51.184;-115.558;2022-11-04T05:58:01;7.60;;;3.00;;
69596;SDS011;56802;51.184;-115.558;2022-11-04T06:00:30;7.50;;;2.80;;
69596;SDS011;56802;51.184;-115.558;2022-11-04T06:03:01;8.00;;;3.00;;
69596;SDS011;56802;51.184;-115.558;2022-11-04T06:05:30;7.70;;;2.90;;
69596;SDS011;56802;51.184;-115.558;2022-11-04T06:07:59;7.20;;;3.00;;
69596;SDS011;56802;51.184;-115.558;2022-11-04T06:10:28;6.50;;;2.70;;
69596;SDS011;56802;51.184;-115.558;2022-11-04T06:12:57;7.30;;;2.50;;
69596;SDS011;56802;51.184;-115.558;2022-11-04T06:15:29;6.90;;;2.70;;
69596;SDS011;56802;51.184;-115.558;2022-11-04T06:17:58;6.80;;;3.00;;
69596;SDS011;56802;51.184;-115.558;2022-11-04T06:20:27;6.70;;;2.90;;
69596;SDS011;56802;51.184;-115.558;2022-11-04T06:22:56;7.00;;;3.10;;
69596;SDS011;56802;51.184;-115.558;2022-11-04T06:25:25;7.10;;;2.90;;
69596;SDS011;56802;51.184;-115.558;2022-11-04T06:27:57;7.40;;;2.60;;
69596;SDS011;56802;51.184;-115.558;2022-11-04T06:30:26;8.00;;;3.20;;
69596;SDS011;56802;51.184;-115.558;2022-11-04T06:32:55;7.10;;;3.10;;
69596;SDS011;56802;51.184;-115.558;2022-11-04T06:35:25;6.80;;;3.20;;
69596;SDS011;56802;51.184;-115.558;2022-11-04T06:37:54;7.90;;;3.20;;
69596;SDS011;56802;51.184;-115.558;2022-11-04T06:40:23;9.40;;;3.00;;
69596;SDS011;56802;51.184;-115.558;2022-11-04T06:42:55;9.10;;;3.50;;
69596;SDS011;56802;51.184;-115.558;2022-11-04T06:45:24;7.30;;;3.10;;
69596;SDS011;56802;51.184;-115.558;2022-11-04T06:47:53;8.40;;;3.30;;
69596;SDS011;56802;51.184;-115.558;2022-11-04T06:50:22;6.90;;;3.40;;
69596;SDS011;56802;51.184;-115.558;2022-11-04T06:52:51;7.60;;;3.40;;
69596;SDS011;56802;51.184;-115.558;2022-11-04T06:55:21;7.00;;;3.10;;
69596;SDS011;56802;51.184;-115.558;2022-11-04T06:57:50;8.60;;;3.40;;
69596;SDS011;56802;51.184;-115.558;2022-11-04T07:00:19;6.90;;;3.10;;
69596;SDS011;56802;51.184;-115.558;2022-11-04T07:02:48;7.60;;;3.10;;
69596;SDS011;56802;51.184;-115.558;2022-11-04T07:05:18;7.10;;;2.90;;
69596;SDS011;56802;51.184;-115.558;2022-11-04T07:07:47;7.00;;;2.90;;
69596;SDS011;56802;51.184;-115.558;2022-11-04T07:10:16;7.10;;;2.90;;
69596;SDS011;56802;51.184;-115.558;2022-11-04T07:12:45;7.00;;;2.90;;
69596;SDS011;56802;51.184;-115.558;2022-11-04T07:15:15;7.20;;;3.00;;
69596;SDS011;56802;51.184;-115.558;2022-11-04T07:17:49;6.10;;;2.70;;
69596;SDS011;56802;51.184;-115.558;2022-11-04T07:20:18;7.00;;;3.20;;
69596;SDS011;56802;51.184;-115.558;2022-11-04T07:22:47;6.40;;;2.80;;
69596;SDS011;56802;51.184;-115.558;2022-11-04T07:25:16;7.90;;;3.40;;
69596;SDS011;56802;51.184;-115.558;2022-11-04T07:27:45;6.80;;;2.90;;
69596;SDS011;56802;51.184;-115.558;2022-11-04T07:30:15;7.50;;;2.80;;
69596;SDS011;56802;51.184;-115.558;2022-11-04T07:32:44;8.20;;;3.20;;
69596;SDS011;56802;51.184;-115.558;2022-11-04T07:35:14;6.80;;;2.90;;
69596;SDS011;56802;51.184;-115.558;2022-11-04T07:37:43;8.40;;;2.80;;
69596;SDS011;56802;51.184;-115.558;2022-11-04T07:40:12;6.40;;;2.70;;
69596;SDS011;56802;51.184;-115.558;2022-11-04T07:42:41;7.10;;;3.30;;
69596;SDS011;56802;51.184;-115.558;2022-11-04T07:45:10;7.30;;;2.90;;
69596;SDS011;56802;51.184;-115.558;2022-11-04T07:47:40;7.40;;;3.30;;
69596;SDS011;56802;51.184;-115.558;2022-11-04T07:50:09;7.80;;;3.40;;
69596;SDS011;56802;51.184;-115.558;2022-11-04T07:52:38;8.40;;;3.30;;
69596;SDS011;56802;51.184;-115.558;2022-11-04T07:55:08;8.40;;;3.10;;
69596;SDS011;56802;51.184;-115.558;2022-11-04T07:57:37;8.20;;;3.60;;
69596;SDS011;56802;51.184;-115.558;2022-11-04T08:00:07;7.30;;;3.30;;
69596;SDS011;56802;51.184;-115.558;2022-11-04T08:02:37;7.00;;;2.90;;
69596;SDS011;56802;51.184;-115.558;2022-11-04T08:05:07;8.30;;;3.30;;
69596;SDS011;56802;51.184;-115.558;2022-11-04T08:07:36;7.70;;;3.20;;
69596;SDS011;56802;51.184;-115.558;2022-11-04T08:10:07;9.10;;;3.30;;
69596;SDS011;56802;51.184;-115.558;2022-11-04T08:12:37;7.80;;;3.60;;
69596;SDS011;56802;51.184;-115.558;2022-11-04T08:15:07;7.10;;;3.30;;
69596;SDS011;56802;51.184;-115.558;2022-11-04T08:17:36;7.00;;;2.80;;
69596;SDS011;56802;51.184;-115.558;2022-11-04T08:20:07;8.50;;;3.00;;
69596;SDS011;56802;51.184;-115.558;2022-11-04T08:22:36;7.60;;;3.00;;
69596;SDS011;56802;51.184;-115.558;2022-11-04T08:25:06;6.50;;;2.80;;
69596;SDS011;56802;51.184;-115.558;2022-11-04T08:27:35;7.30;;;3.20;;
69596;SDS011;56802;51.184;-115.558;2022-11-04T08:30:05;6.70;;;2.80;;
69596;SDS011;56802;51.184;-115.558;2022-11-04T08:32:35;7.70;;;3.20;;
69596;SDS011;56802;51.184;-115.558;2022-11-04T08:35:04;8.20;;;3.60;;
69596;SDS011;56802;51.184;-115.558;2022-11-04T08:37:35;8.30;;;3.40;;
69596;SDS011;56802;51.184;-115.558;2022-11-04T08:40:06;7.30;;;3.10;;
69596;SDS011;56802;51.184;-115.558;2022-11-04T08:42:35;7.40;;;3.40;;
69596;SDS011;56802;51.184;-115.558;2022-11-04T08:45:05;7.10;;;3.00;;
69596;SDS011;56802;51.184;-115.558;2022-11-04T08:47:35;7.40;;;3.00;;
69596;SDS011;56802;51.184;-115.558;2022-11-04T08:50:06;7.40;;;3.00;;
69596;SDS011;56802;51.184;-115.558;2022-11-04T08:52:36;6.90;;;3.00;;
69596;SDS011;56802;51.184;-115.558;2022-11-04T08:55:05;7.90;;;3.10;;
69596;SDS011;56802;51.184;-115.558;2022-11-04T08:57:34;8.90;;;3.30;;
69596;SDS011;56802;51.184;-115.558;2022-11-04T09:00:04;7.00;;;3.40;;
69596;SDS011;56802;51.184;-115.558;2022-11-04T09:02:33;7.50;;;3.60;;
69596;SDS011;56802;51.184;-115.558;2022-11-04T09:05:03;7.50;;;3.00;;
69596;SDS011;56802;51.184;-115.558;2022-11-04T09:07:32;7.20;;;3.10;;
69596;SDS011;56802;51.184;-115.558;2022-11-04T09:10:03;7.70;;;2.90;;
69596;SDS011;56802;51.184;-115.558;2022-11-04T09:12:33;7.30;;;3.00;;
69596;SDS011;56802;51.184;-115.558;2022-11-04T09:15:03;7.20;;;3.00;;
69596;SDS011;56802;51.184;-115.558;2022-11-04T09:17:32;7.00;;;3.10;;
69596;SDS011;56802;51.184;-115.558;2022-11-04T09:20:02;6.80;;;2.50;;
69596;SDS011;56802;51.184;-115.558;2022-11-04T09:22:33;7.50;;;3.20;;
69596;SDS011;56802;51.184;-115.558;2022-11-04T09:25:06;7.20;;;3.30;;
69596;SDS011;56802;51.184;-115.558;2022-11-04T09:27:36;8.00;;;3.50;;
69596;SDS011;56802;51.184;-115.558;2022-11-04T09:30:06;7.30;;;3.00;;
69596;SDS011;56802;51.184;-115.558;2022-11-04T09:32:35;7.20;;;3.10;;
69596;SDS011;56802;51.184;-115.558;2022-11-04T09:35:04;6.40;;;2.90;;
69596;SDS011;56802;51.184;-115.558;2022-11-04T09:37:34;6.50;;;2.50;;
69596;SDS011;56802;51.184;-115.558;2022-11-04T09:40:03;9.30;;;3.60;;
69596;SDS011;56802;51.184;-115.558;2022-11-04T09:45:30;7.80;;;3.10;;
69596;SDS011;56802;51.184;-115.558;2022-11-04T09:48:05;8.30;;;3.10;;
69596;SDS011;56802;51.184;-115.558;2022-11-04T09:50:50;7.50;;;3.00;;
69596;SDS011;56802;51.184;-115.558;2022-11-04T09:53:44;7.10;;;2.90;;
69596;SDS011;56802;51.184;-115.558;2022-11-04T09:56:20;7.40;;;3.20;;
69596;SDS011;56802;51.184;-115.558;2022-11-04T09:58:51;7.50;;;3.00;;
69596;SDS011;56802;51.184;-115.558;2022-11-04T10:13:45;6.50;;;2.60;;
69596;SDS011;56802;51.184;-115.558;2022-11-04T10:20:26;7.00;;;2.60;;
69596;SDS011;56802;51.184;-115.558;2022-11-04T10:23:41;7.80;;;3.00;;
69596;SDS011;56802;51.184;-115.558;2022-11-04T10:26:42;7.80;;;3.40;;
69596;SDS011;56802;51.184;-115.558;2022-11-04T10:29:18;7.00;;;3.20;;
69596;SDS011;56802;51.184;-115.558;2022-11-04T10:33:00;7.20;;;2.80;;
69596;SDS011;56802;51.184;-115.558;2022-11-04T10:36:01;7.40;;;2.80;;
69596;SDS011;56802;51.184;-115.558;2022-11-04T10:38:54;7.20;;;3.30;;
69596;SDS011;56802;51.184;-115.558;2022-11-04T10:41:36;6.90;;;2.70;;
69596;SDS011;56802;51.184;-115.558;2022-11-04T10:44:30;6.90;;;2.60;;
69596;SDS011;56802;51.184;-115.558;2022-11-04T10:47:17;8.10;;;3.20;;
69596;SDS011;56802;51.184;-115.558;2022-11-04T10:53:16;7.20;;;2.90;;
69596;SDS011;56802;51.184;-115.558;2022-11-04T10:58:30;8.20;;;3.40;;
69596;SDS011;56802;51.184;-115.558;2022-11-04T11:01:29;6.30;;;2.60;;
69596;SDS011;56802;51.184;-115.558;2022-11-04T11:04:05;7.10;;;3.00;;
69596;SDS011;56802;51.184;-115.558;2022-11-04T11:06:37;6.70;;;2.80;;
69596;SDS011;56802;51.184;-115.558;2022-11-04T11:09:13;7.30;;;2.90;;
69596;SDS011;56802;51.184;-115.558;2022-11-04T11:11:50;6.80;;;2.70;;
69596;SDS011;56802;51.184;-115.558;2022-11-04T11:20:20;6.50;;;2.60;;
69596;SDS011;56802;51.184;-115.558;2022-11-04T11:22:52;7.60;;;3.30;;
69596;SDS011;56802;51.184;-115.558;2022-11-04T11:25:31;7.20;;;3.40;;
69596;SDS011;56802;51.184;-115.558;2022-11-04T11:28:09;6.90;;;3.00;;
69596;SDS011;56802;51.184;-115.558;2022-11-04T11:33:29;7.50;;;3.10;;
69596;SDS011;56802;51.184;-115.558;2022-11-04T11:42:00;7.10;;;2.60;;
69596;SDS011;56802;51.184;-115.558;2022-11-04T11:44:37;7.50;;;3.00;;
69596;SDS011;56802;51.184;-115.558;2022-11-04T11:50:18;7.90;;;3.30;;
69596;SDS011;56802;51.184;-115.558;2022-11-04T11:52:51;8.00;;;3.20;;
69596;SDS011;56802;51.184;-115.558;2022-11-04T12:01:25;7.50;;;3.30;;
69596;SDS011;56802;51.184;-115.558;2022-11-04T12:03:59;7.90;;;3.60;;
69596;SDS011;56802;51.184;-115.558;2022-11-04T12:07:11;8.10;;;2.80;;
69596;SDS011;56802;51.184;-115.558;2022-11-04T12:13:34;10.30;;;3.00;;
69596;SDS011;56802;51.184;-115.558;2022-11-04T12:28:42;7.70;;;2.70;;
69596;SDS011;56802;51.184;-115.558;2022-11-04T12:46:56;7.80;;;3.40;;
69596;SDS011;56802;51.184;-115.558;2022-11-04T12:50:05;9.50;;;3.60;;
69596;SDS011;56802;51.184;-115.558;2022-11-04T12:59:14;8.20;;;3.30;;
69596;SDS011;56802;51.184;-115.558;2022-11-04T13:02:14;8.90;;;3.00;;
69596;SDS011;56802;51.184;-115.558;2022-11-04T13:05:08;10.00;;;3.30;;
69596;SDS011;56802;51.184;-115.558;2022-11-04T13:10:56;7.00;;;2.90;;
69596;SDS011;56802;51.184;-115.558;2022-11-04T13:13:35;8.10;;;3.40;;
69596;SDS011;56802;51.184;-115.558;2022-11-04T13:16:10;7.90;;;2.80;;
69596;SDS011;56802;51.184;-115.558;2022-11-04T13:18:40;7.10;;;3.20;;
69596;SDS011;56802;51.184;-115.558;2022-11-04T13:21:16;7.80;;;3.40;;
69596;SDS011;56802;51.184;-115.558;2022-11-04T13:23:53;8.50;;;3.30;;
69596;SDS011;56802;51.184;-115.558;2022-11-04T13:26:26;7.30;;;3.50;;
69596;SDS011;56802;51.184;-115.558;2022-11-04T13:29:05;7.60;;;3.00;;
69596;SDS011;56802;51.184;-115.558;2022-11-04T13:31:51;7.90;;;3.20;;
69596;SDS011;56802;51.184;-115.558;2022-11-04T13:35:43;8.20;;;3.40;;
69596;SDS011;56802;51.184;-115.558;2022-11-04T13:38:13;7.60;;;3.10;;
69596;SDS011;56802;51.184;-115.558;2022-11-04T13:43:58;8.50;;;3.60;;
69596;SDS011;56802;51.184;-115.558;2022-11-04T13:46:32;7.20;;;2.80;;
69596;SDS011;56802;51.184;-115.558;2022-11-04T13:51:46;7.40;;;3.10;;
69596;SDS011;56802;51.184;-115.558;2022-11-04T13:54:32;8.20;;;3.00;;
69596;SDS011;56802;51.184;-115.558;2022-11-04T13:57:23;9.00;;;4.20;;
69596;SDS011;56802;51.184;-115.558;2022-11-04T14:02:59;7.90;;;3.00;;
69596;SDS011;56802;51.184;-115.558;2022-11-04T14:08:33;9.50;;;3.50;;
69596;SDS011;56802;51.184;-115.558;2022-11-04T14:11:05;8.80;;;2.80;;
69596;SDS011;56802;51.184;-115.558;2022-11-04T14:13:42;8.10;;;3.70;;
69596;SDS011;56802;51.184;-115.558;2022-11-04T14:18:54;8.80;;;3.70;;
69596;SDS011;56802;51.184;-115.558;2022-11-04T14:21:25;12.00;;;3.70;;
69596;SDS011;56802;51.184;-115.558;2022-11-04T14:23:59;8.40;;;3.70;;
69596;SDS011;56802;51.184;-115.558;2022-11-04T14:26:46;9.00;;;3.50;;
69596;SDS011;56802;51.184;-115.558;2022-11-04T14:29:21;8.90;;;3.70;;
69596;SDS011;56802;51.184;-115.558;2022-11-04T14:31:55;9.00;;;3.10;;
69596;SDS011;56802;51.184;-115.558;2022-11-04T14:34:32;8.30;;;3.60;;
69596;SDS011;56802;51.184;-115.558;2022-11-04T14:37:29;8.40;;;3.50;;
69596;SDS011;56802;51.184;-115.558;2022-11-04T14:40:14;8.20;;;3.40;;
69596;SDS011;56802;51.184;-115.558;2022-11-04T14:42:56;7.90;;;3.20;;
69596;SDS011;56802;51.184;-115.558;2022-11-04T14:45:32;8.10;;;3.20;;
69596;SDS011;56802;51.184;-115.558;2022-11-04T14:48:14;8.40;;;3.50;;
69596;SDS011;56802;51.184;-115.558;2022-11-04T14:50:50;8.50;;;3.80;;
69596;SDS011;56802;51.184;-115.558;2022-11-04T14:53:31;8.20;;;3.40;;
69596;SDS011;56802;51.184;-115.558;2022-11-04T14:56:05;8.80;;;3.20;;
69596;SDS011;56802;51.184;-115.558;2022-11-04T14:58:54;7.70;;;3.50;;
69596;SDS011;56802;51.184;-115.558;2022-11-04T15:01:33;8.20;;;3.60;;
69596;SDS011;56802;51.184;-115.558;2022-11-04T15:04:22;8.10;;;3.80;;
69596;SDS011;56802;51.184;-115.558;2022-11-04T15:06:55;7.60;;;3.70;;
69596;SDS011;56802;51.184;-115.558;2022-11-04T15:09:34;7.30;;;3.50;;
69596;SDS011;56802;51.184;-115.558;2022-11-04T15:14:56;8.50;;;3.90;;
69596;SDS011;56802;51.184;-115.558;2022-11-04T15:17:31;8.60;;;3.30;;
69596;SDS011;56802;51.184;-115.558;2022-11-04T15:20:02;8.90;;;3.50;;
69596;SDS011;56802;51.184;-115.558;2022-11-04T15:22:32;8.80;;;3.60;;
69596;SDS011;56802;51.184;-115.558;2022-11-04T15:25:03;8.00;;;3.50;;
69596;SDS011;56802;51.184;-115.558;2022-11-04T15:27:40;7.30;;;3.30;;
69596;SDS011;56802;51.184;-115.558;2022-11-04T15:30:25;8.70;;;3.80;;
69596;SDS011;56802;51.184;-115.558;2022-11-04T15:33:03;8.60;;;3.00;;
69596;SDS011;56802;51.184;-115.558;2022-11-04T15:35:41;7.90;;;3.40;;
69596;SDS011;56802;51.184;-115.558;2022-11-04T15:38:12;7.10;;;3.30;;
69596;SDS011;56802;51.184;-115.558;2022-11-04T15:40:42;7.70;;;3.40;;
69596;SDS011;56802;51.184;-115.558;2022-11-04T15:43:14;7.80;;;3.60;;
69596;SDS011;56802;51.184;-115.558;2022-11-04T15:45:50;8.80;;;3.90;;
69596;SDS011;56802;51.184;-115.558;2022-11-04T15:56:30;8.90;;;3.50;;
69596;SDS011;56802;51.184;-115.558;2022-11-04T15:59:17;8.60;;;3.80;;
69596;SDS011;56802;51.184;-115.558;2022-11-04T16:01:50;8.70;;;3.30;;
69596;SDS011;56802;51.184;-115.558;2022-11-04T16:04:24;8.30;;;3.40;;
69596;SDS011;56802;51.184;-115.558;2022-11-04T16:07:28;9.00;;;3.80;;
69596;SDS011;56802;51.184;-115.558;2022-11-04T16:09:57;8.70;;;3.70;;
69596;SDS011;56802;51.184;-115.558;2022-11-04T16:12:37;8.50;;;3.50;;
69596;SDS011;56802;51.184;-115.558;2022-11-04T16:18:17;8.20;;;3.30;;
69596;SDS011;56802;51.184;-115.558;2022-11-04T16:20:59;8.30;;;3.60;;
69596;SDS011;56802;51.184;-115.558;2022-11-04T16:23:37;8.70;;;3.90;;
69596;SDS011;56802;51.184;-115.558;2022-11-04T16:26:14;8.90;;;3.90;;
69596;SDS011;56802;51.184;-115.558;2022-11-04T16:28:43;7.90;;;3.50;;
69596;SDS011;56802;51.184;-115.558;2022-11-04T16:31:35;7.10;;;3.20;;
69596;SDS011;56802;51.184;-115.558;2022-11-04T16:34:09;8.30;;;3.90;;
69596;SDS011;56802;51.184;-115.558;2022-11-04T16:36:40;8.50;;;3.70;;
69596;SDS011;56802;51.184;-115.558;2022-11-04T16:39:09;8.70;;;3.70;;
69596;SDS011;56802;51.184;-115.558;2022-11-04T16:41:39;8.30;;;3.40;;
69596;SDS011;56802;51.184;-115.558;2022-11-04T16:44:18;8.20;;;3.50;;
69596;SDS011;56802;51.184;-115.558;2022-11-04T16:46:49;9.40;;;3.60;;
69596;SDS011;56802;51.184;-115.558;2022-11-04T16:49:20;7.80;;;3.50;;
69596;SDS011;56802;51.184;-115.558;2022-11-04T16:51:55;7.10;;;3.00;;
69596;SDS011;56802;51.184;-115.558;2022-11-04T16:54:28;7.60;;;3.50;;
69596;SDS011;56802;51.184;-115.558;2022-11-04T16:56:57;9.00;;;3.50;;
69596;SDS011;56802;51.184;-115.558;2022-11-04T16:59:27;9.20;;;3.20;;
69596;SDS011;56802;51.184;-115.558;2022-11-04T17:01:56;10.60;;;3.60;;
69596;SDS011;56802;51.184;-115.558;2022-11-04T17:04:26;7.40;;;3.50;;
69596;SDS011;56802;51.184;-115.558;2022-11-04T17:06:55;7.30;;;3.60;;
69596;SDS011;56802;51.184;-115.558;2022-11-04T17:09:24;8.70;;;3.50;;
69596;SDS011;56802;51.184;-115.558;2022-11-04T17:11:53;7.30;;;3.40;;
69596;SDS011;56802;51.184;-115.558;2022-11-04T17:14:23;7.30;;;3.40;;
69596;SDS011;56802;51.184;-115.558;2022-11-04T17:16:52;8.90;;;3.50;;
69596;SDS011;56802;51.184;-115.558;2022-11-04T17:19:24;8.00;;;3.90;;
69596;SDS011;56802;51.184;-115.558;2022-11-04T17:22:01;8.00;;;3.40;;
69596;SDS011;56802;51.184;-115.558;2022-11-04T17:24:34;8.10;;;2.90;;
69596;SDS011;56802;51.184;-115.558;2022-11-04T17:27:04;8.90;;;3.90;;
69596;SDS011;56802;51.184;-115.558;2022-11-04T17:29:33;7.60;;;3.30;;
69596;SDS011;56802;51.184;-115.558;2022-11-04T17:32:04;8.00;;;3.30;;
69596;SDS011;56802;51.184;-115.558;2022-11-04T17:34:33;8.00;;;3.90;;
69596;SDS011;56802;51.184;-115.558;2022-11-04T17:37:02;10.10;;;4.00;;